createdAt,value
2023-03-23T15:57:56.552Z,71.50
2023-03-23T16:00:27.885Z,72.21
2023-03-23T16:03:00.190Z,71.50
2023-03-23T16:05:31.028Z,71.41
2023-03-23T16:08:00.875Z,71.39
2023-03-23T16:10:31.874Z,71.25
2023-03-23T16:13:01.191Z,71.41
2023-03-23T16:15:30.374Z,71.53
2023-03-23T16:17:59.475Z,71.37
2023-03-23T16:20:33.283Z,71.36
2023-03-23T16:23:02.583Z,71.41
2023-03-23T16:25:33.095Z,71.44
2023-03-23T16:28:02.301Z,71.47
2023-03-23T16:30:35.628Z,71.63
2023-03-23T16:33:05.013Z,71.80
2023-03-23T16:35:34.140Z,71.81
2023-03-23T16:38:07.809Z,71.68
2023-03-23T16:40:41.828Z,71.96
2023-03-23T16:43:12.197Z,71.96
2023-03-23T16:45:44.295Z,72.17
2023-03-23T16:48:14.973Z,72.17
2023-03-23T16:50:45.285Z,72.35
2023-03-23T16:53:14.704Z,72.62
2023-03-23T16:55:48.151Z,72.37
2023-03-23T16:58:18.603Z,72.44
2023-03-23T17:00:50.531Z,72.60
2023-03-23T17:03:20.574Z,72.88
2023-03-23T17:05:51.539Z,72.81
2023-03-23T17:08:22.892Z,72.90
2023-03-23T17:10:53.825Z,73.11
2023-03-23T17:13:23.311Z,73.12
2023-03-23T17:15:54.741Z,73.67
2023-03-23T17:18:24.350Z,74.15
2023-03-23T17:20:55.006Z,74.55
2023-03-23T17:23:25.773Z,74.53
2023-03-23T17:25:56.419Z,74.32
2023-03-23T17:28:25.992Z,74.73
2023-03-23T17:30:56.721Z,74.32
2023-03-23T17:33:26.275Z,74.57
2023-03-23T17:35:55.776Z,74.78
2023-03-23T17:38:24.778Z,75.34
2023-03-23T17:40:59.398Z,75.61
2023-03-23T17:43:28.793Z,75.82
2023-03-23T17:45:57.844Z,75.97
2023-03-23T17:48:27.139Z,76.40
2023-03-23T17:50:59.239Z,76.93
2023-03-23T17:53:28.661Z,77.35
2023-03-23T17:55:59.897Z,77.39
2023-03-23T17:58:30.419Z,77.85
2023-03-23T18:01:00.044Z,78.19
2023-03-23T18:03:30.935Z,78.47
2023-03-23T18:06:03.436Z,79.27
2023-03-23T18:08:34.706Z,79.73
2023-03-23T18:11:05.959Z,80.02
2023-03-23T18:13:37.548Z,79.90
2023-03-23T18:16:08.309Z,80.05
2023-03-23T18:18:38.022Z,79.86
2023-03-23T18:21:09.766Z,80.21
2023-03-23T18:23:49.657Z,80.26
2023-03-23T18:26:27.331Z,80.26
2023-03-23T18:28:56.685Z,80.20
2023-03-23T18:31:27.118Z,80.24
2023-03-23T18:33:57.062Z,80.27
2023-03-23T18:36:27.803Z,80.70
2023-03-23T18:38:59.020Z,80.09
2023-03-23T18:41:29.889Z,79.86
2023-03-23T18:43:58.930Z,79.35
2023-03-23T18:46:28.163Z,79.56
2023-03-23T18:48:57.511Z,79.99
2023-03-23T18:51:27.371Z,79.79
2023-03-23T18:53:56.526Z,79.58
2023-03-23T18:56:25.788Z,79.93
2023-03-23T18:58:56.473Z,79.94
2023-03-23T19:01:25.937Z,80.23
2023-03-23T19:03:55.256Z,80.34
2023-03-23T19:06:27.634Z,80.13
2023-03-23T19:08:57.881Z,79.94
2023-03-23T19:11:27.964Z,80.69
2023-03-23T19:14:02.843Z,80.79
2023-03-23T19:16:35.924Z,81.01
2023-03-23T19:19:08.065Z,81.30
2023-03-23T19:21:39.863Z,81.89
2023-03-23T19:24:10.167Z,81.94
2023-03-23T19:26:41.847Z,82.19
2023-03-23T19:31:48.010Z,82.72
2023-03-23T19:34:18.197Z,82.93
2023-03-23T19:36:54.271Z,83.87
2023-03-23T19:39:25.530Z,84.29
2023-03-23T19:44:28.561Z,85.12
2023-03-23T19:46:58.601Z,85.33
2023-03-23T19:49:28.573Z,85.44
2023-03-23T19:52:06.433Z,85.38
2023-03-23T19:54:41.067Z,85.88
2023-03-23T19:57:11.408Z,86.00
2023-03-23T19:59:43.087Z,85.62
2023-03-23T20:02:13.380Z,86.17
2023-03-23T20:04:43.681Z,86.27
2023-03-23T20:07:14.353Z,85.54
2023-03-23T20:09:43.833Z,85.90
2023-03-23T20:12:12.972Z,86.09
2023-03-23T20:14:45.356Z,85.76
2023-03-23T20:17:14.879Z,86.20
2023-03-23T20:19:44.994Z,86.02
2023-03-23T20:22:17.921Z,85.31
2023-03-23T20:24:48.275Z,86.02
2023-03-23T20:27:18.889Z,86.71
2023-03-23T20:29:49.455Z,86.67
2023-03-23T20:32:18.375Z,86.85
2023-03-23T20:34:49.390Z,86.94
2023-03-23T20:37:20.877Z,86.72
2023-03-23T20:39:50.043Z,86.89
2023-03-23T20:42:18.973Z,87.26
2023-03-23T20:44:49.427Z,87.05
2023-03-23T20:47:18.345Z,86.93
2023-03-23T20:49:53.001Z,86.77
2023-03-23T20:52:22.967Z,86.87
2023-03-23T20:54:52.026Z,87.01
2023-03-23T20:57:21.320Z,87.31
2023-03-23T20:59:52.588Z,87.34
2023-03-23T21:02:21.767Z,87.33
2023-03-23T21:04:53.067Z,87.46
2023-03-23T21:07:23.994Z,87.38
2023-03-23T21:09:53.011Z,87.24
2023-03-23T21:12:22.612Z,87.59
2023-03-23T21:14:53.071Z,87.40
2023-03-23T21:17:22.362Z,87.35
2023-03-23T21:19:51.726Z,87.75
2023-03-23T21:22:21.641Z,87.53
2023-03-23T21:24:51.503Z,87.07
2023-03-23T21:27:20.571Z,87.10
2023-03-23T21:29:49.542Z,86.77
2023-03-23T21:32:19.864Z,86.41
2023-03-23T21:34:49.017Z,86.32
2023-03-23T21:37:17.974Z,86.38
2023-03-23T21:39:47.409Z,86.73
2023-03-23T21:42:16.575Z,86.07
2023-03-23T21:44:45.803Z,85.89
2023-03-23T21:47:14.747Z,86.06
2023-03-23T21:49:46.199Z,85.72
2023-03-23T21:52:16.252Z,85.96
2023-03-23T21:54:45.752Z,85.80
2023-03-23T21:57:15.042Z,85.82
2023-03-23T21:59:43.967Z,86.15
2023-03-23T22:02:14.203Z,86.74
2023-03-23T22:04:45.534Z,86.53
2023-03-23T22:07:14.840Z,86.55
2023-03-23T22:09:45.085Z,86.68
2023-03-23T22:12:14.204Z,86.58
2023-03-23T22:14:43.402Z,86.36
2023-03-23T22:17:12.792Z,86.26
2023-03-23T22:19:42.443Z,87.00
2023-03-23T22:22:12.883Z,87.41
2023-03-23T22:24:41.981Z,87.30
2023-03-23T22:27:11.078Z,87.95
2023-03-23T22:29:40.647Z,87.83
2023-03-23T22:32:09.738Z,88.25
2023-03-23T22:34:38.725Z,88.09
2023-03-23T22:37:08.438Z,88.30
2023-03-23T22:39:39.132Z,88.62
2023-03-23T22:42:08.225Z,88.52
2023-03-23T22:44:37.570Z,88.72
2023-03-23T22:47:07.058Z,88.67
2023-03-23T22:49:36.144Z,89.23
2023-03-23T22:52:05.594Z,89.21
2023-03-23T22:54:34.637Z,89.16
2023-03-23T22:57:05.312Z,89.29
2023-03-23T22:59:34.301Z,90.10
2023-03-23T23:02:03.483Z,89.83
2023-03-23T23:04:33.951Z,89.63
2023-03-23T23:07:12.389Z,89.85
2023-03-23T23:09:42.873Z,89.93
2023-03-23T23:12:15.139Z,90.64
2023-03-23T23:14:45.076Z,90.77
2023-03-23T23:17:14.072Z,90.87
2023-03-23T23:19:43.570Z,91.40
2023-03-23T23:22:19.030Z,91.55
2023-03-23T23:24:48.966Z,91.90
2023-03-23T23:27:19.447Z,91.76
2023-03-23T23:29:48.409Z,91.89
2023-03-23T23:32:17.435Z,92.56
2023-03-23T23:34:46.952Z,92.42
2023-03-23T23:37:15.942Z,93.05
2023-03-23T23:39:45.184Z,93.28
2023-03-23T23:42:14.224Z,93.37
2023-03-23T23:44:46.516Z,93.47
2023-03-23T23:47:16.143Z,93.52
2023-03-23T23:49:45.180Z,93.63
2023-03-23T23:52:14.226Z,94.07
2023-03-23T23:54:47.255Z,94.25
2023-03-23T23:57:16.954Z,94.00
2023-03-23T23:59:47.437Z,94.26
